sensor_id;sensor_type;location;lat;lon;timestamp;pressure;altitude;pressure_sealevel;temperature;humidity
34241;BME280;20503;50.200;19.508;2024-03-06T00:00:06;101356.00;;;6.29;52.60
34241;BME280;20503;50.200;19.508;2024-03-06T00:01:10;101354.34;;;6.42;52.38
34241;BME280;20503;50.200;19.508;2024-03-06T00:02:16;101347.49;;;6.53;52.01
34241;BME280;20503;50.200;19.508;2024-03-06T00:03:17;101349.31;;;6.52;52.02
34241;BME280;20503;50.200;19.508;2024-03-06T00:04:19;101351.84;;;6.55;51.87
34241;BME280;20503;50.200;19.508;2024-03-06T00:05:45;101359.11;;;6.22;52.17
34241;BME280;20503;50.200;19.508;2024-03-06T00:06:46;101350.35;;;6.18;52.74
34241;BME280;20503;50.200;19.508;2024-03-06T00:07:47;101346.48;;;6.08;52.81
34241;BME280;20503;50.200;19.508;2024-03-06T00:08:49;101347.87;;;5.99;53.15
34241;BME280;20503;50.200;19.508;2024-03-06T00:09:51;101350.62;;;6.13;53.10
34241;BME280;20503;50.200;19.508;2024-03-06T00:10:54;101350.55;;;5.99;54.05
34241;BME280;20503;50.200;19.508;2024-03-06T00:11:57;101355.21;;;5.96;53.25
34241;BME280;20503;50.200;19.508;2024-03-06T00:13:02;101350.30;;;5.86;53.92
34241;BME280;20503;50.200;19.508;2024-03-06T00:14:22;101359.03;;;6.07;53.53
34241;BME280;20503;50.200;19.508;2024-03-06T00:15:24;101359.37;;;6.17;52.95
34241;BME280;20503;50.200;19.508;2024-03-06T00:19:27;101367.35;;;5.85;54.11
34241;BME280;20503;50.200;19.508;2024-03-06T00:20:29;101365.08;;;5.95;53.57
34241;BME280;20503;50.200;19.508;2024-03-06T00:21:30;101364.47;;;6.06;53.36
34241;BME280;20503;50.200;19.508;2024-03-06T00:22:32;101362.83;;;6.03;53.21
34241;BME280;20503;50.200;19.508;2024-03-06T00:23:34;101369.06;;;6.04;52.94
34241;BME280;20503;50.200;19.508;2024-03-06T00:24:38;101361.02;;;6.20;53.42
34241;BME280;20503;50.200;19.508;2024-03-06T00:25:39;101361.63;;;6.25;52.93
34241;BME280;20503;50.200;19.508;2024-03-06T00:26:42;101363.45;;;6.40;52.52
34241;BME280;20503;50.200;19.508;2024-03-06T00:27:45;101356.59;;;6.34;52.20
34241;BME280;20503;50.200;19.508;2024-03-06T00:28:46;101343.43;;;6.30;51.87
34241;BME280;20503;50.200;19.508;2024-03-06T00:29:47;101358.08;;;6.24;52.10
34241;BME280;20503;50.200;19.508;2024-03-06T00:30:49;101358.34;;;6.20;52.22
34241;BME280;20503;50.200;19.508;2024-03-06T00:31:50;101372.00;;;5.99;52.15
34241;BME280;20503;50.200;19.508;2024-03-06T00:32:51;101363.49;;;6.07;52.64
34241;BME280;20503;50.200;19.508;2024-03-06T00:33:53;101360.77;;;6.24;52.27
34241;BME280;20503;50.200;19.508;2024-03-06T00:34:54;101368.18;;;6.35;51.81
34241;BME280;20503;50.200;19.508;2024-03-06T00:35:56;101364.57;;;6.36;51.57
34241;BME280;20503;50.200;19.508;2024-03-06T00:36:57;101363.08;;;6.30;52.56
34241;BME280;20503;50.200;19.508;2024-03-06T00:37:58;101370.70;;;6.22;52.14
34241;BME280;20503;50.200;19.508;2024-03-06T00:39:03;101364.84;;;6.31;52.02
34241;BME280;20503;50.200;19.508;2024-03-06T00:40:08;101370.61;;;5.92;53.02
34241;BME280;20503;50.200;19.508;2024-03-06T00:41:09;101370.78;;;6.05;52.86
34241;BME280;20503;50.200;19.508;2024-03-06T00:42:11;101359.80;;;6.25;52.91
34241;BME280;20503;50.200;19.508;2024-03-06T00:43:38;101367.32;;;6.34;51.92
34241;BME280;20503;50.200;19.508;2024-03-06T00:44:39;101371.07;;;6.32;51.94
34241;BME280;20503;50.200;19.508;2024-03-06T00:45:40;101362.21;;;6.14;52.22
34241;BME280;20503;50.200;19.508;2024-03-06T00:46:42;101369.33;;;5.82;54.04
34241;BME280;20503;50.200;19.508;2024-03-06T00:47:44;101362.21;;;6.14;53.51
34241;BME280;20503;50.200;19.508;2024-03-06T00:48:46;101365.17;;;6.41;53.60
34241;BME280;20503;50.200;19.508;2024-03-06T00:49:47;101368.38;;;6.32;53.93
34241;BME280;20503;50.200;19.508;2024-03-06T00:50:50;101373.55;;;6.51;53.76
34241;BME280;20503;50.200;19.508;2024-03-06T00:51:51;101367.84;;;6.57;54.32
34241;BME280;20503;50.200;19.508;2024-03-06T00:52:52;101361.73;;;6.85;53.45
34241;BME280;20503;50.200;19.508;2024-03-06T00:53:53;101370.71;;;7.00;52.41
34241;BME280;20503;50.200;19.508;2024-03-06T00:54:55;101363.62;;;6.83;50.88
34241;BME280;20503;50.200;19.508;2024-03-06T00:56:16;101370.92;;;6.81;51.69
34241;BME280;20503;50.200;19.508;2024-03-06T00:57:26;101377.33;;;6.78;51.29
34241;BME280;20503;50.200;19.508;2024-03-06T00:58:28;101362.18;;;6.77;51.20
34241;BME280;20503;50.200;19.508;2024-03-06T00:59:29;101361.38;;;6.75;50.83
34241;BME280;20503;50.200;19.508;2024-03-06T01:00:31;101374.49;;;6.65;51.47
34241;BME280;20503;50.200;19.508;2024-03-06T01:01:32;101361.77;;;6.53;51.32
34241;BME280;20503;50.200;19.508;2024-03-06T01:02:34;101362.21;;;6.46;51.15
34241;BME280;20503;50.200;19.508;2024-03-06T01:03:37;101358.41;;;6.18;51.40
34241;BME280;20503;50.200;19.508;2024-03-06T01:05:05;101371.12;;;6.14;51.59
34241;BME280;20503;50.200;19.508;2024-03-06T01:06:08;101368.55;;;6.29;51.51
34241;BME280;20503;50.200;19.508;2024-03-06T01:07:09;101364.91;;;6.30;51.46
34241;BME280;20503;50.200;19.508;2024-03-06T01:08:10;101363.71;;;6.20;51.77
34241;BME280;20503;50.200;19.508;2024-03-06T01:09:11;101365.32;;;6.06;51.84
34241;BME280;20503;50.200;19.508;2024-03-06T01:10:12;101352.97;;;6.20;52.03
34241;BME280;20503;50.200;19.508;2024-03-06T01:11:14;101364.22;;;6.26;51.52
34241;BME280;20503;50.200;19.508;2024-03-06T01:12:16;101365.27;;;6.39;50.88
34241;BME280;20503;50.200;19.508;2024-03-06T01:13:20;101360.34;;;6.32;51.21
34241;BME280;20503;50.200;19.508;2024-03-06T01:14:21;101362.15;;;6.15;51.74
34241;BME280;20503;50.200;19.508;2024-03-06T01:15:23;101365.44;;;6.21;51.62
34241;BME280;20503;50.200;19.508;2024-03-06T01:16:26;101368.12;;;6.36;51.00
34241;BME280;20503;50.200;19.508;2024-03-06T01:17:27;101358.15;;;6.23;50.85
34241;BME280;20503;50.200;19.508;2024-03-06T01:18:49;101381.84;;;5.99;51.89
34241;BME280;20503;50.200;19.508;2024-03-06T01:19:51;101364.81;;;6.00;51.63
34241;BME280;20503;50.200;19.508;2024-03-06T01:20:52;101375.55;;;6.00;51.28
34241;BME280;20503;50.200;19.508;2024-03-06T01:21:54;101372.00;;;5.99;52.09
34241;BME280;20503;50.200;19.508;2024-03-06T01:22:55;101368.69;;;5.94;51.83
34241;BME280;20503;50.200;19.508;2024-03-06T01:23:56;101374.43;;;6.04;52.42
34241;BME280;20503;50.200;19.508;2024-03-06T01:24:57;101372.17;;;5.96;52.14
34241;BME280;20503;50.200;19.508;2024-03-06T01:26:01;101371.80;;;6.02;51.13
34241;BME280;20503;50.200;19.508;2024-03-06T01:27:02;101364.47;;;6.06;51.69
34241;BME280;20503;50.200;19.508;2024-03-06T01:28:04;101369.41;;;6.13;51.53
34241;BME280;20503;50.200;19.508;2024-03-06T01:29:09;101367.94;;;6.08;51.90
34241;BME280;20503;50.200;19.508;2024-03-06T01:30:11;101374.22;;;5.91;52.62
34241;BME280;20503;50.200;19.508;2024-03-06T01:31:12;101357.96;;;5.94;52.15
34241;BME280;20503;50.200;19.508;2024-03-06T01:32:14;101364.62;;;6.03;51.73
34241;BME280;20503;50.200;19.508;2024-03-06T01:33:15;101366.30;;;5.72;52.35
34241;BME280;20503;50.200;19.508;2024-03-06T01:34:17;101367.66;;;5.97;52.26
34241;BME280;20503;50.200;19.508;2024-03-06T01:35:20;101367.56;;;5.98;51.56
34241;BME280;20503;50.200;19.508;2024-03-06T01:36:21;101370.52;;;6.09;51.22
34241;BME280;20503;50.200;19.508;2024-03-06T01:37:22;101375.99;;;6.08;51.27
34241;BME280;20503;50.200;19.508;2024-03-06T01:38:23;101370.43;;;6.11;51.74
34241;BME280;20503;50.200;19.508;2024-03-06T01:39:25;101372.95;;;6.14;50.92
34241;BME280;20503;50.200;19.508;2024-03-06T01:40:26;101369.14;;;6.18;51.14
34241;BME280;20503;50.200;19.508;2024-03-06T01:41:53;101382.28;;;6.07;51.16
34241;BME280;20503;50.200;19.508;2024-03-06T01:42:55;101379.87;;;6.18;51.00
34241;BME280;20503;50.200;19.508;2024-03-06T01:43:57;101376.05;;;6.06;50.68
34241;BME280;20503;50.200;19.508;2024-03-06T01:44:58;101373.89;;;5.97;50.92
34241;BME280;20503;50.200;19.508;2024-03-06T01:46:01;101375.08;;;5.91;51.49
34241;BME280;20503;50.200;19.508;2024-03-06T01:47:03;101365.41;;;6.05;51.41
34241;BME280;20503;50.200;19.508;2024-03-06T01:48:07;101377.53;;;5.96;51.37
34241;BME280;20503;50.200;19.508;2024-03-06T01:49:15;101368.20;;;5.86;50.87
34241;BME280;20503;50.200;19.508;2024-03-06T01:50:17;101388.24;;;5.63;51.89
34241;BME280;20503;50.200;19.508;2024-03-06T01:51:19;101382.63;;;5.67;51.79
34241;BME280;20503;50.200;19.508;2024-03-06T01:52:22;101379.86;;;5.69;52.08
34241;BME280;20503;50.200;19.508;2024-03-06T01:53:27;101381.93;;;5.64;51.84
34241;BME280;20503;50.200;19.508;2024-03-06T01:54:31;101393.12;;;5.55;52.12
34241;BME280;20503;50.200;19.508;2024-03-06T01:55:34;101381.77;;;5.67;52.19
34241;BME280;20503;50.200;19.508;2024-03-06T01:56:39;101384.20;;;5.72;52.17
34241;BME280;20503;50.200;19.508;2024-03-06T01:57:45;101387.66;;;5.74;51.75
34241;BME280;20503;50.200;19.508;2024-03-06T01:58:48;101382.03;;;5.78;51.32
34241;BME280;20503;50.200;19.508;2024-03-06T01:59:49;101381.71;;;5.84;51.27
34241;BME280;20503;50.200;19.508;2024-03-06T02:00:52;101382.67;;;5.83;51.65
34241;BME280;20503;50.200;19.508;2024-03-06T02:01:54;101380.59;;;5.88;51.27
34241;BME280;20503;50.200;19.508;2024-03-06T02:02:56;101385.73;;;5.93;50.83
34241;BME280;20503;50.200;19.508;2024-03-06T02:03:57;101379.95;;;6.01;50.58
34241;BME280;20503;50.200;19.508;2024-03-06T02:05:00;101384.88;;;5.92;50.39
34241;BME280;20503;50.200;19.508;2024-03-06T02:06:05;101378.55;;;5.93;51.05
34241;BME280;20503;50.200;19.508;2024-03-06T02:07:10;101383.15;;;5.74;51.20
34241;BME280;20503;50.200;19.508;2024-03-06T02:08:11;101381.32;;;5.59;51.06
34241;BME280;20503;50.200;19.508;2024-03-06T02:09:13;101386.16;;;5.35;51.27
34241;BME280;20503;50.200;19.508;2024-03-06T02:10:15;101382.45;;;5.20;52.44
34241;BME280;20503;50.200;19.508;2024-03-06T02:11:16;101380.73;;;5.19;52.73
34241;BME280;20503;50.200;19.508;2024-03-06T02:12:17;101384.00;;;5.41;52.53
34241;BME280;20503;50.200;19.508;2024-03-06T02:13:19;101381.38;;;5.57;52.08
34241;BME280;20503;50.200;19.508;2024-03-06T02:14:23;101370.66;;;5.57;51.59
34241;BME280;20503;50.200;19.508;2024-03-06T02:15:24;101380.54;;;5.22;51.92
34241;BME280;20503;50.200;19.508;2024-03-06T02:16:26;101391.89;;;5.10;53.01
34241;BME280;20503;50.200;19.508;2024-03-06T02:17:28;101384.02;;;5.24;52.19
34241;BME280;20503;50.200;19.508;2024-03-06T02:18:55;101387.17;;;5.32;51.99
34241;BME280;20503;50.200;19.508;2024-03-06T02:20:02;101375.81;;;5.44;51.36
34241;BME280;20503;50.200;19.508;2024-03-06T02:21:07;101382.43;;;5.37;51.27
34241;BME280;20503;50.200;19.508;2024-03-06T02:22:10;101382.13;;;5.26;51.66
34241;BME280;20503;50.200;19.508;2024-03-06T02:23:13;101383.38;;;5.36;51.95
34241;BME280;20503;50.200;19.508;2024-03-06T02:24:23;101384.27;;;5.19;51.93
34241;BME280;20503;50.200;19.508;2024-03-06T02:25:43;101386.70;;;5.24;51.82
34241;BME280;20503;50.200;19.508;2024-03-06T02:26:44;101382.52;;;5.36;51.46
34241;BME280;20503;50.200;19.508;2024-03-06T02:27:46;101382.30;;;5.23;51.60
34241;BME280;20503;50.200;19.508;2024-03-06T02:28:56;101385.45;;;5.31;51.88
34241;BME280;20503;50.200;19.508;2024-03-06T02:29:57;101391.57;;;5.33;51.53
34241;BME280;20503;50.200;19.508;2024-03-06T02:30:59;101387.09;;;5.34;51.51
34241;BME280;20503;50.200;19.508;2024-03-06T02:32:00;101391.27;;;5.39;51.23
34241;BME280;20503;50.200;19.508;2024-03-06T02:33:08;101386.31;;;5.32;51.11
34241;BME280;20503;50.200;19.508;2024-03-06T02:34:10;101387.02;;;5.35;51.65
34241;BME280;20503;50.200;19.508;2024-03-06T02:35:12;101387.57;;;5.25;51.40
34241;BME280;20503;50.200;19.508;2024-03-06T02:36:17;101383.47;;;5.17;52.08
34241;BME280;20503;50.200;19.508;2024-03-06T02:37:18;101395.05;;;5.18;52.36
34241;BME280;20503;50.200;19.508;2024-03-06T02:38:20;101392.84;;;5.09;52.44
34241;BME280;20503;50.200;19.508;2024-03-06T02:39:21;101390.00;;;5.29;51.93
34241;BME280;20503;50.200;19.508;2024-03-06T02:40:23;101388.19;;;5.30;51.74
34241;BME280;20503;50.200;19.508;2024-03-06T02:41:24;101390.41;;;5.04;51.63
34241;BME280;20503;50.200;19.508;2024-03-06T02:42:28;101393.21;;;4.66;52.88
34241;BME280;20503;50.200;19.508;2024-03-06T02:43:30;101385.59;;;4.93;52.96
34241;BME280;20503;50.200;19.508;2024-03-06T02:44:31;101384.04;;;5.07;52.35
34241;BME280;20503;50.200;19.508;2024-03-06T02:45:52;101388.77;;;5.19;52.00
34241;BME280;20503;50.200;19.508;2024-03-06T02:46:54;101383.32;;;5.20;51.63
34241;BME280;20503;50.200;19.508;2024-03-06T02:47:55;101391.03;;;5.09;51.95
34241;BME280;20503;50.200;19.508;2024-03-06T02:48:57;101384.10;;;5.05;52.10
34241;BME280;20503;50.200;19.508;2024-03-06T02:49:58;101385.13;;;5.20;51.45
34241;BME280;20503;50.200;19.508;2024-03-06T02:51:00;101386.70;;;5.24;51.24
34241;BME280;20503;50.200;19.508;2024-03-06T02:52:01;101384.02;;;5.24;51.72
34241;BME280;20503;50.200;19.508;2024-03-06T02:53:03;101386.23;;;5.16;51.78
34241;BME280;20503;50.200;19.508;2024-03-06T02:54:05;101390.64;;;5.17;51.73
34241;BME280;20503;50.200;19.508;2024-03-06T02:55:06;101388.27;;;4.93;52.21
34241;BME280;20503;50.200;19.508;2024-03-06T02:56:17;101394.57;;;5.10;51.56
34241;BME280;20503;50.200;19.508;2024-03-06T02:57:18;101391.89;;;5.10;51.71
34241;BME280;20503;50.200;19.508;2024-03-06T02:58:20;101390.50;;;5.03;51.36
34241;BME280;20503;50.200;19.508;2024-03-06T02:59:21;101392.37;;;5.01;51.96
34241;BME280;20503;50.200;19.508;2024-03-06T03:00:22;101391.65;;;5.14;51.92
34241;BME280;20503;50.200;19.508;2024-03-06T03:01:37;101402.69;;;5.26;51.66
34241;BME280;20503;50.200;19.508;2024-03-06T03:02:39;101389.95;;;5.31;51.24
34241;BME280;20503;50.200;19.508;2024-03-06T03:03:41;101398.13;;;5.28;51.31
34241;BME280;20503;50.200;19.508;2024-03-06T03:04:45;101402.44;;;5.30;51.73
34241;BME280;20503;50.200;19.508;2024-03-06T03:05:46;101396.86;;;5.17;50.93
34241;BME280;20503;50.200;19.508;2024-03-06T03:06:47;101397.01;;;5.14;51.34
34241;BME280;20503;50.200;19.508;2024-03-06T03:07:50;101407.39;;;4.86;51.62
34241;BME280;20503;50.200;19.508;2024-03-06T03:08:52;101399.93;;;4.92;51.79
34241;BME280;20503;50.200;19.508;2024-03-06T03:09:53;101402.13;;;5.02;51.79
34241;BME280;20503;50.200;19.508;2024-03-06T03:10:54;101402.37;;;5.14;51.11
34241;BME280;20503;50.200;19.508;2024-03-06T03:12:01;101404.90;;;5.00;51.34
34241;BME280;20503;50.200;19.508;2024-03-06T03:13:04;101407.87;;;4.94;51.68
34241;BME280;20503;50.200;19.508;2024-03-06T03:14:06;101410.55;;;4.94;51.89
34241;BME280;20503;50.200;19.508;2024-03-06T03:15:26;101418.33;;;4.81;52.04
34241;BME280;20503;50.200;19.508;2024-03-06T03:16:27;101403.46;;;4.93;51.81
34241;BME280;20503;50.200;19.508;2024-03-06T03:17:29;101403.47;;;5.10;51.88
34241;BME280;20503;50.200;19.508;2024-03-06T03:18:30;101407.97;;;5.10;51.12
34241;BME280;20503;50.200;19.508;2024-03-06T03:19:32;101408.35;;;5.02;51.58
34241;BME280;20503;50.200;19.508;2024-03-06T03:20:34;101408.77;;;5.12;51.64
34241;BME280;20503;50.200;19.508;2024-03-06T03:21:56;101415.27;;;4.89;51.26
34241;BME280;20503;50.200;19.508;2024-03-06T03:23:00;101403.31;;;4.79;52.07
34241;BME280;20503;50.200;19.508;2024-03-06T03:24:02;101404.46;;;4.73;52.27
34241;BME280;20503;50.200;19.508;2024-03-06T03:25:10;101408.23;;;4.69;52.31
34241;BME280;20503;50.200;19.508;2024-03-06T03:26:15;101407.63;;;4.81;52.12
34241;BME280;20503;50.200;19.508;2024-03-06T03:27:17;101409.53;;;4.79;52.17
34241;BME280;20503;50.200;19.508;2024-03-06T03:28:19;101411.40;;;4.77;51.58
34241;BME280;20503;50.200;19.508;2024-03-06T03:29:20;101406.66;;;4.82;51.72
34241;BME280;20503;50.200;19.508;2024-03-06T03:30:22;101403.13;;;4.45;52.30
34241;BME280;20503;50.200;19.508;2024-03-06T03:31:23;101402.04;;;4.50;52.51
34241;BME280;20503;50.200;19.508;2024-03-06T03:32:24;101412.38;;;4.57;52.46
34241;BME280;20503;50.200;19.508;2024-03-06T03:33:26;101409.84;;;4.54;52.51
34241;BME280;20503;50.200;19.508;2024-03-06T03:34:27;101403.80;;;4.51;52.88
34241;BME280;20503;50.200;19.508;2024-03-06T03:35:29;101405.38;;;4.55;52.92
34241;BME280;20503;50.200;19.508;2024-03-06T03:36:33;101408.46;;;4.64;52.71
34241;BME280;20503;50.200;19.508;2024-03-06T03:38:04;101416.98;;;4.73;51.93
34241;BME280;20503;50.200;19.508;2024-03-06T03:39:06;101413.73;;;4.66;51.77
34241;BME280;20503;50.200;19.508;2024-03-06T03:40:20;101408.08;;;4.72;52.07
34241;BME280;20503;50.200;19.508;2024-03-06T03:41:21;101416.11;;;4.72;52.13
34241;BME280;20503;50.200;19.508;2024-03-06T03:42:22;101410.92;;;4.86;51.72
34241;BME280;20503;50.200;19.508;2024-03-06T03:43:24;101410.16;;;4.84;51.89
34241;BME280;20503;50.200;19.508;2024-03-06T03:44:25;101411.59;;;4.91;51.50
34241;BME280;20503;50.200;19.508;2024-03-06T03:45:46;101416.20;;;4.70;51.82
34241;BME280;20503;50.200;19.508;2024-03-06T03:46:48;101411.40;;;4.77;51.84
34241;BME280;20503;50.200;19.508;2024-03-06T03:47:49;101405.56;;;4.69;51.96
34241;BME280;20503;50.200;19.508;2024-03-06T03:48:50;101413.69;;;4.49;52.24
34241;BME280;20503;50.200;19.508;2024-03-06T03:49:54;101410.14;;;4.48;52.60
34241;BME280;20503;50.200;19.508;2024-03-06T03:50:55;101403.98;;;4.65;52.43
34241;BME280;20503;50.200;19.508;2024-03-06T03:52:03;101412.00;;;4.65;52.20
34241;BME280;20503;50.200;19.508;2024-03-06T03:53:04;101407.16;;;4.54;52.30
34241;BME280;20503;50.200;19.508;2024-03-06T03:54:06;101410.36;;;4.62;52.45
34241;BME280;20503;50.200;19.508;2024-03-06T03:55:08;101407.97;;;4.56;51.90
34241;BME280;20503;50.200;19.508;2024-03-06T03:56:10;101404.56;;;4.53;52.54
34241;BME280;20503;50.200;19.508;2024-03-06T03:57:11;101409.09;;;4.69;51.53
34241;BME280;20503;50.200;19.508;2024-03-06T03:58:15;101403.93;;;4.84;52.10
34241;BME280;20503;50.200;19.508;2024-03-06T03:59:16;101407.19;;;4.90;51.39
34241;BME280;20503;50.200;19.508;2024-03-06T04:00:18;101409.70;;;4.93;51.03
34241;BME280;20503;50.200;19.508;2024-03-06T04:01:20;101399.93;;;4.92;51.15
34241;BME280;20503;50.200;19.508;2024-03-06T04:02:21;101412.36;;;4.93;51.43
34241;BME280;20503;50.200;19.508;2024-03-06T04:03:23;101409.27;;;4.66;50.90
34241;BME280;20503;50.200;19.508;2024-03-06T04:04:25;101414.05;;;4.60;50.95
34241;BME280;20503;50.200;19.508;2024-03-06T04:05:27;101413.32;;;4.56;51.53
34241;BME280;20503;50.200;19.508;2024-03-06T04:06:28;101414.81;;;4.62;51.40
34241;BME280;20503;50.200;19.508;2024-03-06T04:07:30;101404.56;;;4.53;51.66
34241;BME280;20503;50.200;19.508;2024-03-06T04:08:31;101415.09;;;4.19;52.28
34241;BME280;20503;50.200;19.508;2024-03-06T04:09:33;101412.32;;;4.21;52.67
34241;BME280;20503;50.200;19.508;2024-03-06T04:10:39;101419.99;;;3.91;53.62
34241;BME280;20503;50.200;19.508;2024-03-06T04:11:41;101413.36;;;3.40;55.43
34241;BME280;20503;50.200;19.508;2024-03-06T04:12:42;101414.34;;;3.78;54.01
34241;BME280;20503;50.200;19.508;2024-03-06T04:13:43;101415.28;;;3.16;56.20
34241;BME280;20503;50.200;19.508;2024-03-06T04:14:44;101417.03;;;3.37;55.48
34241;BME280;20503;50.200;19.508;2024-03-06T04:15:46;101416.25;;;2.93;57.19
34241;BME280;20503;50.200;19.508;2024-03-06T04:16:48;101414.75;;;3.08;57.70
34241;BME280;20503;50.200;19.508;2024-03-06T04:17:50;101430.80;;;2.64;59.18
34241;BME280;20503;50.200;19.508;2024-03-06T04:18:51;101420.95;;;2.66;59.35
34241;BME280;20503;50.200;19.508;2024-03-06T04:20:10;101429.32;;;2.79;59.16
34241;BME280;20503;50.200;19.508;2024-03-06T04:21:12;101421.37;;;3.19;58.14
34241;BME280;20503;50.200;19.508;2024-03-06T04:22:18;101380.98;;;2.64;59.14
34241;BME280;20503;50.200;19.508;2024-03-06T04:23:20;101419.84;;;3.55;57.29
34241;BME280;20503;50.200;19.508;2024-03-06T04:24:21;101428.51;;;2.55;60.07
34241;BME280;20503;50.200;19.508;2024-03-06T04:25:23;101427.13;;;2.44;61.74
34241;BME280;20503;50.200;19.508;2024-03-06T04:26:24;101427.15;;;2.66;61.18
34241;BME280;20503;50.200;19.508;2024-03-06T04:27:25;101425.29;;;2.46;62.22
34241;BME280;20503;50.200;19.508;2024-03-06T04:28:27;101428.69;;;2.72;61.12
34241;BME280;20503;50.200;19.508;2024-03-06T04:29:30;101437.48;;;2.07;63.43
34241;BME280;20503;50.200;19.508;2024-03-06T04:30:48;101434.83;;;2.07;63.96
34241;BME280;20503;50.200;19.508;2024-03-06T04:32:16;101432.56;;;2.19;64.53
34241;BME280;20503;50.200;19.508;2024-03-06T04:33:17;101432.33;;;2.26;64.42
34241;BME280;20503;50.200;19.508;2024-03-06T04:34:45;101433.53;;;3.27;61.50
34241;BME280;20503;50.200;19.508;2024-03-06T04:35:47;101430.86;;;3.27;60.83
34241;BME280;20503;50.200;19.508;2024-03-06T04:36:49;101427.65;;;3.18;61.15
34241;BME280;20503;50.200;19.508;2024-03-06T04:37:50;101428.49;;;2.77;62.80
34241;BME280;20503;50.200;19.508;2024-03-06T04:38:52;101436.98;;;3.29;61.71
34241;BME280;20503;50.200;19.508;2024-03-06T04:39:54;101431.22;;;2.53;63.26
34241;BME280;20503;50.200;19.508;2024-03-06T04:40:55;101436.02;;;2.67;64.16
34241;BME280;20503;50.200;19.508;2024-03-06T04:41:57;101434.02;;;2.72;63.10
34241;BME280;20503;50.200;19.508;2024-03-06T04:42:58;101431.73;;;3.48;61.62
34241;BME280;20503;50.200;19.508;2024-03-06T04:44:00;101436.82;;;2.91;62.30
34241;BME280;20503;50.200;19.508;2024-03-06T04:45:18;101443.68;;;3.39;61.81
34241;BME280;20503;50.200;19.508;2024-03-06T04:46:36;101444.23;;;3.05;62.76
34241;BME280;20503;50.200;19.508;2024-03-06T04:47:37;101442.66;;;2.79;63.92
34241;BME280;20503;50.200;19.508;2024-03-06T04:48:39;101439.59;;;3.10;62.86
34241;BME280;20503;50.200;19.508;2024-03-06T04:49:41;101439.98;;;3.21;63.06
34241;BME280;20503;50.200;19.508;2024-03-06T04:50:55;101441.02;;;3.39;62.07
34241;BME280;20503;50.200;19.508;2024-03-06T04:51:57;101435.45;;;3.64;61.58
34241;BME280;20503;50.200;19.508;2024-03-06T04:52:59;101432.97;;;2.98;62.96
34241;BME280;20503;50.200;19.508;2024-03-06T04:54:00;101432.34;;;3.34;62.93
34241;BME280;20503;50.200;19.508;2024-03-06T04:55:01;101438.39;;;3.78;61.71
34241;BME280;20503;50.200;19.508;2024-03-06T04:56:05;101431.57;;;4.10;60.91
34241;BME280;20503;50.200;19.508;2024-03-06T04:57:08;101442.58;;;3.84;60.77
34241;BME280;20503;50.200;19.508;2024-03-06T04:58:10;101444.65;;;3.77;60.39
34241;BME280;20503;50.200;19.508;2024-03-06T04:59:11;101446.22;;;3.62;61.23
34241;BME280;20503;50.200;19.508;2024-03-06T05:00:15;101447.52;;;3.11;63.35
34241;BME280;20503;50.200;19.508;2024-03-06T05:01:16;101440.80;;;3.43;62.33
34241;BME280;20503;50.200;19.508;2024-03-06T05:02:17;101441.45;;;3.69;61.45
34241;BME280;20503;50.200;19.508;2024-03-06T05:03:19;101439.54;;;3.52;62.06
34241;BME280;20503;50.200;19.508;2024-03-06T05:04:20;101442.41;;;3.48;62.53
34241;BME280;20503;50.200;19.508;2024-03-06T05:05:24;101443.99;;;3.11;63.60
34241;BME280;20503;50.200;19.508;2024-03-06T05:06:25;101447.73;;;3.07;63.64
34241;BME280;20503;50.200;19.508;2024-03-06T05:07:28;101438.52;;;3.75;61.81
34241;BME280;20503;50.200;19.508;2024-03-06T05:08:30;101439.83;;;3.85;61.79
34241;BME280;20503;50.200;19.508;2024-03-06T05:09:31;101437.48;;;3.98;61.14
34241;BME280;20503;50.200;19.508;2024-03-06T05:10:32;101440.69;;;3.46;62.78
34241;BME280;20503;50.200;19.508;2024-03-06T05:11:37;101449.80;;;3.61;61.75
34241;BME280;20503;50.200;19.508;2024-03-06T05:12:40;101448.45;;;3.92;61.25
34241;BME280;20503;50.200;19.508;2024-03-06T05:13:41;101449.21;;;3.75;62.20
34241;BME280;20503;50.200;19.508;2024-03-06T05:14:42;101443.65;;;4.19;61.06
34241;BME280;20503;50.200;19.508;2024-03-06T05:15:43;101454.56;;;4.14;60.63
34241;BME280;20503;50.200;19.508;2024-03-06T05:16:45;101445.95;;;4.08;60.91
34241;BME280;20503;50.200;19.508;2024-03-06T05:17:46;101447.91;;;4.23;60.82
34241;BME280;20503;50.200;19.508;2024-03-06T05:18:48;101449.28;;;4.32;60.83
34241;BME280;20503;50.200;19.508;2024-03-06T05:19:50;101450.11;;;4.70;59.77
34241;BME280;20503;50.200;19.508;2024-03-06T05:20:53;101440.22;;;4.53;60.42
34241;BME280;20503;50.200;19.508;2024-03-06T05:21:55;101443.26;;;5.01;59.19
34241;BME280;20503;50.200;19.508;2024-03-06T05:22:57;101445.97;;;5.35;57.96
34241;BME280;20503;50.200;19.508;2024-03-06T05:23:58;101448.86;;;5.13;57.88
34241;BME280;20503;50.200;19.508;2024-03-06T05:25:00;101443.60;;;4.76;60.62
34241;BME280;20503;50.200;19.508;2024-03-06T05:26:01;101451.78;;;4.73;60.47
34241;BME280;20503;50.200;19.508;2024-03-06T05:27:03;101449.43;;;5.37;58.56
34241;BME280;20503;50.200;19.508;2024-03-06T05:28:05;101444.55;;;5.63;57.39
34241;BME280;20503;50.200;19.508;2024-03-06T05:29:07;101447.46;;;5.41;58.02
34241;BME280;20503;50.200;19.508;2024-03-06T05:30:08;101453.45;;;5.11;58.34
34241;BME280;20503;50.200;19.508;2024-03-06T05:31:16;101447.30;;;5.44;58.18
34241;BME280;20503;50.200;19.508;2024-03-06T05:32:25;101450.53;;;5.16;58.25
34241;BME280;20503;50.200;19.508;2024-03-06T05:33:27;101450.46;;;4.81;59.15
34241;BME280;20503;50.200;19.508;2024-03-06T05:34:31;101454.88;;;5.36;59.04
34241;BME280;20503;50.200;19.508;2024-03-06T05:35:33;101458.47;;;5.17;58.55